メインページ
METAR-TAF:

METAR-TAF

空港 :

仁川国際空港, 大韓民国

緯度: 37-28N, 経度: 126-27E, 海抜: 7m

現時点の気象観測

当レポートは24分前の23:30(UTC)に作成
南東の風 1kt
気温 0°C
湿度 59%
気圧 1026 hPa
視程10km以上
高度3000ftの雲は散在している
高度13000ftの千切れ雲あり

METAR: RKSI 182330Z 14001KT 9999 SCT030 BKN130 M00/M07 Q1026 NOSIG

時間: 08:54 (23:54 UTC)

予報

当レポートは54分前の23:00(UTC)に作成
予報は19日の 00時(UTC)から 20日の 06時(UTC)まで有効
西の風 6kt
視程: 7000m
高度3000ftの千切れ雲あり
高度15000ftの千切れ雲あり
19日の 01時(UTC)から 19日の 02時(UTC)まで徐々に
高度3000ftの雲はほとんどない
高度15000ftの千切れ雲あり
19日の 15時(UTC)から 19日の 16時(UTC)まで徐々に
視程: 4200m
19日の 17時(UTC)から 19日の 18時(UTC)まで徐々に
東/北東の風 6kt
視程: 7000m
20日の 02時(UTC)から 20日の 03時(UTC)まで徐々に
西の風 7kt

TAF: RKSI 182300Z 1900/2006 28006KT 7000 BKN030 BKN150 TX05/1906Z TNM03/1922Z TX04/2006Z BECMG 1901/1902 FEW030 BKN150 BECMG 1915/1916 4200 BR BECMG 1917/1918 07006KT 7000 NSW BECMG 2002/2003 28007KT

4,000以上の空港の気象観測と天気予報(METAR報とTAF報)

利用可能な観測所は地図上に黄色い丸と赤い丸で示す。

丸の上にカーソルを重ねると観測所名を参照できる。

次にクリックすると気象観測と天気予報を参照できる。

マップの切り替え:黒色「×」印の緑ボタンをクリックして拡大、「-」印の緑ボタンをクリックして縮小、緑色の三角印をクリックして隣りの地図に切り替え


METAR-TAF: